createdAt,value
2023-03-24T00:02:14.680Z,90.90
2023-03-24T00:06:38.622Z,90.90
2023-03-24T00:11:04.175Z,90.90
2023-03-24T00:15:29.086Z,90.80
2023-03-24T00:19:56.041Z,90.60
2023-03-24T00:24:20.240Z,90.50
2023-03-24T00:28:46.739Z,90.50
2023-03-24T00:33:11.444Z,90.60
2023-03-24T00:37:38.048Z,90.80
2023-03-24T00:42:03.424Z,91.10
2023-03-24T00:46:29.323Z,91.40
2023-03-24T00:50:55.215Z,91.80
2023-03-24T00:55:21.278Z,92.30
2023-03-24T00:59:48.547Z,92.80
2023-03-24T01:04:12.483Z,93.30
2023-03-24T01:08:36.531Z,93.70
2023-03-24T01:13:02.975Z,94.00
2023-03-24T01:17:27.440Z,94.20
2023-03-24T01:21:51.442Z,94.50
2023-03-24T01:26:15.550Z,94.60
2023-03-24T01:30:41.515Z,94.80
2023-03-24T01:35:06.363Z,95.30
2023-03-24T01:39:30.847Z,96.00
2023-03-24T01:43:54.749Z,96.90
2023-03-24T01:48:23.616Z,98.20
2023-03-24T01:52:47.688Z,99.10
2023-03-24T01:57:17.821Z,99.60
2023-03-24T02:01:42.442Z,99.70
2023-03-24T02:06:35.129Z,99.40
2023-03-24T02:11:00.456Z,99.00
2023-03-24T02:15:34.824Z,98.70
2023-03-24T02:20:40.566Z,98.30
2023-03-24T02:25:39.046Z,97.90
2023-03-24T02:30:27.699Z,97.70
2023-03-24T02:35:24.638Z,97.90
2023-03-24T02:40:13.745Z,98.50
2023-03-24T02:44:49.615Z,99.40
2023-03-24T02:49:27.621Z,99.90
2023-03-24T02:53:57.516Z,99.90
2023-03-24T02:58:32.359Z,99.90
2023-03-24T03:03:03.056Z,99.90
2023-03-24T03:07:33.479Z,99.90
2023-03-24T03:12:00.734Z,99.90
2023-03-24T03:16:34.841Z,99.90
2023-03-24T03:21:04.474Z,99.90
2023-03-24T03:25:37.125Z,99.90
2023-03-24T03:30:06.018Z,99.90
2023-03-24T03:34:40.936Z,99.90
2023-03-24T03:39:10.195Z,99.90
2023-03-24T03:43:35.694Z,99.90
2023-03-24T03:48:00.947Z,99.90
2023-03-24T03:52:26.542Z,99.90
2023-03-24T03:56:52.258Z,99.90
2023-03-24T04:01:28.911Z,99.90
2023-03-24T04:06:36.127Z,99.90
2023-03-24T04:11:33.098Z,99.90
2023-03-24T04:16:14.160Z,99.90
2023-03-24T04:21:33.457Z,99.90
2023-03-24T04:26:11.891Z,99.90
2023-03-24T04:30:44.392Z,99.90
2023-03-24T04:35:20.687Z,99.90
2023-03-24T04:40:08.514Z,99.90
2023-03-24T04:44:34.029Z,99.90
2023-03-24T04:49:19.255Z,99.90
2023-03-24T04:53:44.560Z,99.90
2023-03-24T04:58:08.742Z,99.90
2023-03-24T05:02:33.204Z,99.90
2023-03-24T05:07:18.659Z,99.90
2023-03-24T05:11:46.353Z,99.90
2023-03-24T05:16:10.848Z,99.90
2023-03-24T05:20:38.340Z,99.90
2023-03-24T05:25:12.565Z,99.90
2023-03-24T05:29:37.152Z,99.90
2023-03-24T05:34:01.509Z,99.90
2023-03-24T05:38:27.056Z,99.90
2023-03-24T05:42:53.973Z,99.90
2023-03-24T05:47:21.935Z,99.90
2023-03-24T05:51:45.941Z,99.90
2023-03-24T05:56:12.168Z,99.90
2023-03-24T06:00:57.681Z,99.90
2023-03-24T06:05:31.269Z,99.90
2023-03-24T06:09:58.035Z,99.90
2023-03-24T06:14:23.008Z,99.90
2023-03-24T06:18:59.180Z,99.90
2023-03-24T06:23:41.729Z,99.90
2023-03-24T06:28:12.290Z,99.90
2023-03-24T06:32:38.300Z,99.90
2023-03-24T06:37:03.598Z,99.90
2023-03-24T06:41:27.438Z,99.90
2023-03-24T06:45:55.498Z,99.90
2023-03-24T06:50:21.078Z,99.90
2023-03-24T06:54:46.281Z,99.90
2023-03-24T06:59:10.382Z,99.90
2023-03-24T07:03:35.478Z,99.90
2023-03-24T07:08:37.174Z,99.90
2023-03-24T07:13:04.599Z,99.90
2023-03-24T07:17:31.348Z,99.90
2023-03-24T07:22:27.859Z,99.90
2023-03-24T07:27:30.219Z,99.90
2023-03-24T07:31:58.941Z,99.90
2023-03-24T07:36:23.982Z,99.90
2023-03-24T07:40:48.247Z,99.90
2023-03-24T07:45:13.862Z,99.90
2023-03-24T07:49:39.132Z,99.90
2023-03-24T07:54:06.951Z,99.90
2023-03-24T07:58:34.873Z,99.90
2023-03-24T08:03:09.594Z,99.60
2023-03-24T08:07:39.378Z,99.30
2023-03-24T08:12:17.501Z,99.50
2023-03-24T08:16:46.038Z,97.90
2023-03-24T08:21:10.598Z,97.80
2023-03-24T08:25:36.375Z,97.70
2023-03-24T08:30:00.273Z,98.20
2023-03-24T08:34:25.004Z,97.80
2023-03-24T08:38:51.823Z,97.00
2023-03-24T08:43:17.572Z,97.50
2023-03-24T08:47:42.018Z,97.70
2023-03-24T08:52:06.452Z,97.90
2023-03-24T08:56:31.181Z,95.40
2023-03-24T09:00:56.600Z,96.00
2023-03-24T09:05:29.329Z,96.40
2023-03-24T09:10:01.030Z,95.80
2023-03-24T09:14:25.142Z,94.40
2023-03-24T09:18:50.478Z,86.40
2023-03-24T09:23:14.620Z,90.40
2023-03-24T09:27:39.814Z,88.60
2023-03-24T09:32:03.733Z,90.50
2023-03-24T09:36:34.760Z,87.20
2023-03-24T09:41:02.860Z,85.10
2023-03-24T09:45:29.478Z,84.90
2023-03-24T09:49:54.406Z,84.40
2023-03-24T09:54:27.728Z,83.40
2023-03-24T09:59:00.846Z,82.40
2023-03-24T10:03:25.147Z,76.70
2023-03-24T10:07:57.162Z,76.20
2023-03-24T10:12:33.571Z,76.20
2023-03-24T10:17:05.594Z,72.90
2023-03-24T10:21:33.441Z,73.10
2023-03-24T10:26:04.887Z,72.70
2023-03-24T10:30:34.600Z,73.80
2023-03-24T10:35:07.641Z,75.20
2023-03-24T10:44:00.839Z,79.20
2023-03-24T10:48:45.313Z,79.40
2023-03-24T10:53:19.208Z,78.70
2023-03-24T10:57:45.391Z,80.80
2023-03-24T11:02:19.974Z,80.50
2023-03-24T11:07:02.470Z,77.80
2023-03-24T11:11:31.577Z,74.60
2023-03-24T11:16:08.384Z,72.30
2023-03-24T11:20:34.423Z,66.40
2023-03-24T11:25:00.150Z,67.20
2023-03-24T11:29:25.818Z,68.40
2023-03-24T11:33:56.697Z,69.40
2023-03-24T11:38:29.644Z,70.10
2023-03-24T11:42:58.602Z,71.20
2023-03-24T11:47:28.630Z,72.40
2023-03-24T11:51:55.528Z,74.30
2023-03-24T11:56:28.899Z,77.20
2023-03-24T12:00:57.828Z,80.30
2023-03-24T12:05:31.177Z,79.50
2023-03-24T12:10:02.246Z,79.60
2023-03-24T12:14:31.967Z,80.70
2023-03-24T12:19:27.906Z,82.60
2023-03-24T12:23:59.318Z,84.10
2023-03-24T12:28:46.159Z,89.60
2023-03-24T12:33:33.986Z,90.80
2023-03-24T12:38:13.155Z,88.90
2023-03-24T12:42:42.039Z,90.20
2023-03-24T12:47:16.134Z,90.90
2023-03-24T12:51:48.258Z,90.80
2023-03-24T12:56:17.599Z,88.70
2023-03-24T13:00:48.093Z,87.70
2023-03-24T13:05:21.137Z,86.90
2023-03-24T13:09:53.198Z,87.40
2023-03-24T13:14:25.422Z,87.40
2023-03-24T13:18:53.716Z,86.70
2023-03-24T13:23:33.965Z,85.60
2023-03-24T13:28:01.063Z,82.70
2023-03-24T13:32:34.103Z,84.20
2023-03-24T13:37:01.623Z,84.50
2023-03-24T13:41:27.977Z,84.00
2023-03-24T13:45:53.797Z,81.00
2023-03-24T13:50:21.278Z,80.30
2023-03-24T13:54:45.998Z,80.70
2023-03-24T13:59:41.037Z,83.10
2023-03-24T14:04:29.055Z,83.80
2023-03-24T14:09:06.977Z,84.90
2023-03-24T14:13:39.587Z,85.10
2023-03-24T14:18:39.658Z,86.20
2023-03-24T14:23:25.417Z,85.40
2023-03-24T14:27:56.155Z,85.50
2023-03-24T14:32:25.648Z,85.70
2023-03-24T14:37:01.369Z,83.30
2023-03-24T14:41:34.317Z,80.10
2023-03-24T14:46:02.303Z,78.70
2023-03-24T14:50:30.368Z,76.80
2023-03-24T14:55:00.933Z,76.20
2023-03-24T14:59:34.592Z,75.10
2023-03-24T15:04:06.361Z,73.90
2023-03-24T15:08:33.417Z,74.30
2023-03-24T15:13:02.018Z,73.60
2023-03-24T15:17:26.813Z,72.50
2023-03-24T15:21:58.805Z,71.30
2023-03-24T15:26:24.050Z,70.60
2023-03-24T15:30:48.767Z,71.40
2023-03-24T15:35:16.705Z,72.20
2023-03-24T15:39:42.245Z,72.10
2023-03-24T15:44:09.800Z,71.90
2023-03-24T15:48:37.998Z,71.50
2023-03-24T15:53:03.892Z,71.00
2023-03-24T15:57:30.271Z,71.10
2023-03-24T16:01:54.617Z,70.60
2023-03-24T16:06:30.047Z,70.50
2023-03-24T16:10:59.688Z,70.00
2023-03-24T16:15:25.482Z,68.80
2023-03-24T16:19:49.449Z,68.00
2023-03-24T16:24:13.337Z,68.00
2023-03-24T16:28:37.242Z,67.70
2023-03-24T16:33:02.883Z,68.20
2023-03-24T16:37:26.816Z,68.60
2023-03-24T16:41:50.681Z,68.70
2023-03-24T16:46:16.888Z,68.60
2023-03-24T16:50:44.277Z,68.70
2023-03-24T16:55:08.914Z,69.10
2023-03-24T16:59:32.965Z,69.20
2023-03-24T17:03:58.096Z,69.60
2023-03-24T17:08:23.692Z,69.90
2023-03-24T17:12:48.470Z,70.20
2023-03-24T17:17:12.730Z,70.70
2023-03-24T17:21:40.083Z,71.10
2023-03-24T17:26:06.157Z,71.50
2023-03-24T17:30:32.037Z,71.80
2023-03-24T17:34:56.935Z,72.30
2023-03-24T17:39:22.342Z,72.60
2023-03-24T17:43:49.256Z,72.70
2023-03-24T17:48:14.123Z,72.80
2023-03-24T17:52:39.095Z,72.90
2023-03-24T17:57:03.223Z,73.00
2023-03-24T18:01:30.207Z,73.00
2023-03-24T18:05:54.647Z,73.00
2023-03-24T18:10:18.651Z,73.00
2023-03-24T18:14:42.510Z,73.10
2023-03-24T18:19:08.351Z,73.20
2023-03-24T18:23:32.385Z,73.30
2023-03-24T18:27:57.072Z,73.60
2023-03-24T18:32:21.461Z,73.80
2023-03-24T18:36:47.475Z,74.20
2023-03-24T18:41:13.027Z,74.70
2023-03-24T18:45:36.983Z,75.30
2023-03-24T18:50:01.843Z,75.90
2023-03-24T18:54:27.398Z,76.50
2023-03-24T18:58:52.557Z,77.00
2023-03-24T19:03:17.310Z,77.70
2023-03-24T19:07:41.443Z,78.30
2023-03-24T19:12:07.517Z,79.30
2023-03-24T19:16:31.546Z,80.20
2023-03-24T19:20:57.022Z,81.30
2023-03-24T19:25:21.820Z,82.80
2023-03-24T19:29:47.674Z,84.20
2023-03-24T19:34:11.761Z,85.50
2023-03-24T19:38:36.174Z,86.60
2023-03-24T19:43:00.106Z,87.60
2023-03-24T19:47:25.742Z,88.40
2023-03-24T19:51:50.994Z,89.20
2023-03-24T19:56:17.461Z,89.90
2023-03-24T20:00:41.601Z,90.20
2023-03-24T20:05:08.073Z,90.50
2023-03-24T20:09:32.018Z,91.00
2023-03-24T20:13:56.295Z,91.30
2023-03-24T20:18:20.282Z,91.70
2023-03-24T20:22:46.398Z,92.00
2023-03-24T20:27:10.354Z,92.40
2023-03-24T20:31:36.315Z,92.80
2023-03-24T20:36:00.531Z,93.20
2023-03-24T20:40:25.877Z,93.70
2023-03-24T20:44:50.099Z,94.40
2023-03-24T20:49:16.778Z,94.90
2023-03-24T20:53:41.753Z,95.20
2023-03-24T20:58:08.449Z,94.90
2023-03-24T21:02:32.706Z,94.10
2023-03-24T21:06:57.528Z,93.70
2023-03-24T21:11:22.422Z,93.80
2023-03-24T21:15:48.112Z,93.70
2023-03-24T21:20:14.420Z,93.40
2023-03-24T21:24:41.578Z,93.60
2023-03-24T21:29:07.189Z,94.30
2023-03-24T21:33:33.803Z,94.90
2023-03-24T21:37:57.793Z,95.10
2023-03-24T21:42:22.807Z,95.30
2023-03-24T21:46:48.763Z,95.00
2023-03-24T21:51:15.117Z,94.40
2023-03-24T21:55:39.056Z,94.10
2023-03-24T22:00:09.844Z,94.50
2023-03-24T22:04:38.252Z,94.90
2023-03-24T22:09:06.533Z,95.30
2023-03-24T22:13:31.286Z,96.10
2023-03-24T22:17:55.400Z,96.10
2023-03-24T22:22:19.236Z,96.60
2023-03-24T22:26:44.653Z,97.00
2023-03-24T22:31:10.341Z,97.50
2023-03-24T22:35:34.149Z,98.20
2023-03-24T22:39:57.971Z,98.80
2023-03-24T22:44:23.361Z,99.20
2023-03-24T22:48:47.259Z,99.60
2023-03-24T22:53:11.995Z,99.70
2023-03-24T22:57:35.975Z,99.60
2023-03-24T23:02:09.207Z,99.30
2023-03-24T23:06:34.256Z,99.00
2023-03-24T23:10:59.065Z,98.80
2023-03-24T23:15:18.030Z,99.00
2023-03-24T23:19:43.632Z,99.40
2023-03-24T23:24:08.010Z,99.90
2023-03-24T23:28:32.751Z,99.90
2023-03-24T23:32:58.236Z,99.90
2023-03-24T23:37:23.502Z,99.90
2023-03-24T23:41:47.422Z,99.90
2023-03-24T23:46:11.608Z,99.90
2023-03-24T23:50:35.914Z,99.90
2023-03-24T23:55:03.548Z,99.90
2023-03-24T23:59:27.592Z,99.90
